This is the latest recevied weather packets stored in our database for station/object OK1JIL-13. If no packets are shown the sender has not sent any weather packets the latest 10 day(s).
| Time | Temp. | Humidity | Pressure | Rain* | Wind** | Luminosity | Snow |
|---|---|---|---|---|---|---|---|
| 1777460592 | 5.56° C | 30% | 1025.5 hPa | - | - | - | - |
| 1777459992 | 5.56° C | 29% | 1025.4 hPa | - | - | - | - |
| 1777459392 | 7.22° C | 27% | 1025.5 hPa | - | - | - | - |
| 1777458792 | 5.56° C | 31% | 1025.4 hPa | - | - | - | - |
| 1777458192 | 6.11° C | 29% | 1025.3 hPa | - | - | - | - |
| 1777457592 | 5.56° C | 29% | 1025.2 hPa | - | - | - | - |
| 1777456992 | 7.78° C | 28% | 1025.3 hPa | - | - | - | - |
| 1777456392 | 6.67° C | 29% | 1025.6 hPa | - | - | - | - |
| 1777455792 | 7.78° C | 26% | 1025.5 hPa | - | - | - | - |
| 1777455192 | 7.78° C | 29% | 1025.3 hPa | - | - | - | - |
| 1777454592 | 7.22° C | 33% | 1025.2 hPa | - | - | - | - |
| 1777453992 | 8.89° C | 29% | 1025.2 hPa | - | - | - | - |
| 1777453392 | 7.78° C | 30% | 1025.3 hPa | - | - | - | - |
| 1777452792 | 5.56° C | 34% | 1025.4 hPa | - | - | - | - |
| 1777452194 | 6.67° C | 33% | 1025.4 hPa | - | - | - | - |
| 1777451589 | 7.78° C | 33% | 1025.2 hPa | - | - | - | - |
| 1777450989 | 6.67° C | 31% | 1025.3 hPa | - | - | - | - |
| 1777450389 | 6.11° C | 34% | 1025.3 hPa | - | - | - | - |
| 1777449789 | 6.67° C | 33% | 1025.1 hPa | - | - | - | - |
| 1777449189 | 8.33° C | 32% | 1024.9 hPa | - | - | - | - |
| 1777448593 | 8.33° C | 34% | 1025 hPa | - | - | - | - |
| 1777447990 | 7.22° C | 34% | 1025 hPa | - | - | - | - |
| 1777447389 | 6.11° C | 37% | 1024.9 hPa | - | - | - | - |
| 1777446789 | 6.67° C | 36% | 1024.8 hPa | - | - | - | - |
| 1777446189 | 6.67° C | 35% | 1024.8 hPa | - | - | - | - |
* Rain since midnight (hover to see other rain measurements)
** Current wind speed in m/s (hover to see current wind gust speed)